createdAt,value
2022-11-10T00:02:08.284Z,12.43
2022-11-10T00:04:34.938Z,12.70
2022-11-10T00:15:05.729Z,12.94
2022-11-10T00:17:38.688Z,12.97
2022-11-10T00:27:51.039Z,13.18
2022-11-10T00:32:58.734Z,13.03
2022-11-10T00:35:25.297Z,13.20
2022-11-10T00:37:52.002Z,12.90
2022-11-10T00:40:19.222Z,12.90
2022-11-10T00:42:45.788Z,13.05
2022-11-10T00:45:13.662Z,13.09
2022-11-10T00:47:40.185Z,13.07
2022-11-10T00:50:07.382Z,13.02
2022-11-10T00:52:33.934Z,12.98
2022-11-10T01:20:37.886Z,12.80
2022-11-10T01:23:04.493Z,12.88
2022-11-10T01:25:31.054Z,12.82
2022-11-10T01:27:57.577Z,12.81
2022-11-10T01:52:52.265Z,12.87
2022-11-10T01:55:18.871Z,12.97
2022-11-10T01:57:45.847Z,13.05
2022-11-10T02:11:42.758Z,13.00
2022-11-10T02:14:09.984Z,12.90
2022-11-10T02:16:57.054Z,12.98
2022-11-10T02:37:50.998Z,13.04
2022-11-10T02:40:36.675Z,13.16
2022-11-10T02:43:09.695Z,13.26
2022-11-10T02:45:42.050Z,13.27
2022-11-10T02:48:09.791Z,13.26
2022-11-10T02:50:36.617Z,13.17
2022-11-10T02:53:09.074Z,13.11
2022-11-10T03:22:37.815Z,13.20
2022-11-10T03:29:08.530Z,13.31
2022-11-10T03:40:09.705Z,13.33
2022-11-10T03:51:34.422Z,13.58
2022-11-10T04:36:41.538Z,13.12
2022-11-10T04:39:09.662Z,13.04
2022-11-10T04:41:36.552Z,13.16
2022-11-10T04:44:26.814Z,13.05
2022-11-10T04:47:13.218Z,12.99
2022-11-10T04:49:40.148Z,13.19
2022-11-10T04:52:06.750Z,13.29
2022-11-10T04:54:33.323Z,13.38
2022-11-10T04:56:59.911Z,13.41
2022-11-10T04:59:26.428Z,13.32
2022-11-10T05:01:52.943Z,13.14
2022-11-10T05:59:48.921Z,12.71
2022-11-10T10:11:34.706Z,13.61
2022-11-10T10:14:10.927Z,13.84
2022-11-10T10:16:57.518Z,13.59
2022-11-10T10:19:48.978Z,14.24
2022-11-10T10:22:18.445Z,14.26
2022-11-10T10:24:45.312Z,13.92
2022-11-10T10:27:23.573Z,14.08
2022-11-10T10:29:52.806Z,14.07
2022-11-10T10:32:22.545Z,14.20
2022-11-10T10:34:49.192Z,14.32
2022-11-10T10:42:32.677Z,14.91
2022-11-10T10:45:14.589Z,15.12
2022-11-10T10:47:41.546Z,14.72
2022-11-10T10:50:26.572Z,14.69
2022-11-10T10:57:12.238Z,14.54
2022-11-10T10:59:38.891Z,14.65
2022-11-10T11:02:25.771Z,15.09
2022-11-10T11:05:14.240Z,15.35
2022-11-10T11:07:41.669Z,15.79
2022-11-10T11:10:22.470Z,15.86
2022-11-10T11:12:49.154Z,15.87
2022-11-10T11:15:28.634Z,15.94
2022-11-10T11:18:04.429Z,15.93
2022-11-10T11:20:48.508Z,15.79
2022-11-10T11:23:27.166Z,15.59
2022-11-10T11:25:59.447Z,15.60
2022-11-10T11:28:40.878Z,15.29
2022-11-10T11:31:32.046Z,15.72
2022-11-10T11:34:11.081Z,15.43
2022-11-10T11:36:59.221Z,15.44
2022-11-10T11:39:50.538Z,15.16
2022-11-10T11:42:43.742Z,15.87
2022-11-10T11:45:24.835Z,15.98
2022-11-10T11:48:23.767Z,16.18
2022-11-10T11:51:10.674Z,15.76
2022-11-10T11:54:14.821Z,15.10
2022-11-10T11:56:43.430Z,14.61
2022-11-10T11:59:18.637Z,14.97
2022-11-10T12:01:54.005Z,14.51
2022-11-10T12:04:42.165Z,14.07
2022-11-10T12:07:32.528Z,13.98
2022-11-10T12:10:18.285Z,14.16
2022-11-10T12:13:03.280Z,13.82
2022-11-10T12:16:02.181Z,14.13
2022-11-10T12:18:36.300Z,14.28
2022-11-10T12:21:20.089Z,14.11
2022-11-10T12:24:09.768Z,14.36
2022-11-10T12:27:08.074Z,14.17
2022-11-10T12:29:41.390Z,14.73
2022-11-10T12:32:34.473Z,15.01
2022-11-10T12:35:14.469Z,14.90
2022-11-10T12:37:43.096Z,14.28
2022-11-10T12:40:17.796Z,14.57
2022-11-10T12:42:47.401Z,14.23
2022-11-10T12:45:16.637Z,14.38
2022-11-10T12:47:45.971Z,14.08
2022-11-10T12:50:51.535Z,13.83
2022-11-10T12:53:29.804Z,13.91
2022-11-10T12:56:02.333Z,13.69
2022-11-10T12:58:29.083Z,13.32
2022-11-10T13:00:59.442Z,13.57
2022-11-10T13:03:32.522Z,13.42
2022-11-10T13:06:02.419Z,13.10
2022-11-10T13:08:32.920Z,12.54
2022-11-10T13:11:11.605Z,13.11
2022-11-10T13:13:43.957Z,12.87
2022-11-10T13:16:10.849Z,12.70
2022-11-10T13:18:37.400Z,12.72
2022-11-10T13:21:04.109Z,13.03
2022-11-10T13:23:50.547Z,13.03
2022-11-10T13:26:39.074Z,13.03
2022-11-10T13:29:34.906Z,13.24
2022-11-10T13:32:07.419Z,13.29
2022-11-10T13:34:36.618Z,13.24
2022-11-10T13:37:24.289Z,13.26
2022-11-10T13:39:51.464Z,13.35
2022-11-10T13:42:20.364Z,13.47
2022-11-10T13:44:47.879Z,13.47
2022-11-10T13:47:35.095Z,13.00
2022-11-10T13:50:10.953Z,13.20
2022-11-10T13:53:21.572Z,13.24
2022-11-10T13:56:00.707Z,13.12
2022-11-10T13:58:31.077Z,13.28
2022-11-10T14:01:16.222Z,12.79
2022-11-10T14:03:46.009Z,13.16
2022-11-10T14:06:44.141Z,12.94
2022-11-10T14:09:29.175Z,13.05
2022-11-10T14:12:02.384Z,12.93
2022-11-10T14:14:58.077Z,13.08
2022-11-10T14:17:29.799Z,13.34
2022-11-10T14:19:56.411Z,12.78
2022-11-10T14:22:29.951Z,12.72
2022-11-10T14:25:04.329Z,13.18
2022-11-10T14:27:36.935Z,12.39
2022-11-10T14:30:05.922Z,12.07
2022-11-10T14:32:32.671Z,12.45
2022-11-10T14:35:00.905Z,12.28
2022-11-10T14:37:39.586Z,12.11
2022-11-10T14:40:15.209Z,12.06
2022-11-10T14:42:41.815Z,12.09
2022-11-10T14:45:19.299Z,12.28
2022-11-10T14:47:54.134Z,12.17
2022-11-10T14:50:25.064Z,12.24
2022-11-10T14:53:29.362Z,12.12
2022-11-10T14:55:56.959Z,12.18
2022-11-10T14:58:25.462Z,12.35
2022-11-10T15:00:52.774Z,11.96
2022-11-10T15:03:34.939Z,11.86
2022-11-10T15:06:03.379Z,11.86
2022-11-10T15:08:50.088Z,11.88
2022-11-10T15:11:35.387Z,12.11
2022-11-10T15:14:01.959Z,12.08
2022-11-10T15:16:36.184Z,11.90
2022-11-10T15:19:23.195Z,12.24
2022-11-10T15:21:52.304Z,12.09
2022-11-10T15:24:19.409Z,11.93
2022-11-10T15:26:46.117Z,12.35
2022-11-10T15:29:23.627Z,12.36
2022-11-10T15:31:53.034Z,12.59
2022-11-10T15:34:41.658Z,12.29
2022-11-10T15:37:30.858Z,12.08
2022-11-10T15:40:45.977Z,12.07
2022-11-10T15:43:22.297Z,12.18
2022-11-10T15:45:54.763Z,11.70
2022-11-10T15:48:21.623Z,11.94
2022-11-10T15:50:52.333Z,11.87
2022-11-10T15:53:25.892Z,11.83
2022-11-10T15:55:52.764Z,11.76
2022-11-10T15:58:22.112Z,11.51
2022-11-10T16:00:49.079Z,11.84
2022-11-10T16:03:19.280Z,12.25
2022-11-10T16:05:46.076Z,11.91
2022-11-10T16:08:17.773Z,11.85
2022-11-10T16:10:52.984Z,12.15
2022-11-10T16:13:24.960Z,12.11
2022-11-10T16:15:52.676Z,12.15
2022-11-10T16:18:22.108Z,11.98
2022-11-10T16:20:50.969Z,11.89
2022-11-10T16:23:17.696Z,11.82
2022-11-10T16:25:46.154Z,11.94
2022-11-10T16:28:21.753Z,11.83
2022-11-10T16:30:48.977Z,12.06
2022-11-10T16:33:17.748Z,12.08
2022-11-10T16:35:47.064Z,11.67
2022-11-10T16:38:20.467Z,12.06
2022-11-10T16:41:11.317Z,12.11
2022-11-10T16:43:37.982Z,12.02
2022-11-10T16:46:13.899Z,11.83
2022-11-10T16:48:45.585Z,11.75
2022-11-10T16:51:14.265Z,11.70
2022-11-10T16:53:41.743Z,11.71
2022-11-10T16:56:15.982Z,11.81
2022-11-10T16:58:42.637Z,11.59
2022-11-10T17:01:22.144Z,11.57
2022-11-10T17:03:52.140Z,11.67
2022-11-10T17:06:21.533Z,11.91
2022-11-10T17:08:51.280Z,12.30
2022-11-10T17:11:18.174Z,12.31
2022-11-10T17:13:44.830Z,12.21
2022-11-10T17:16:31.905Z,12.03
2022-11-10T17:19:05.551Z,12.13
2022-11-10T17:21:36.328Z,11.70
2022-11-10T17:24:04.861Z,11.80
2022-11-10T17:26:31.831Z,11.90
2022-11-10T17:28:58.721Z,11.78
2022-11-10T17:31:25.289Z,11.87
2022-11-10T17:33:51.911Z,12.01
2022-11-10T17:36:21.013Z,11.98
2022-11-10T17:38:47.780Z,11.95
2022-11-10T17:41:16.960Z,12.41
2022-11-10T17:43:45.887Z,12.02
2022-11-10T17:46:14.085Z,11.90
2022-11-10T17:48:40.686Z,11.95
2022-11-10T17:51:13.739Z,12.18
2022-11-10T17:53:40.207Z,12.05
2022-11-10T17:56:07.031Z,12.05
2022-11-10T17:58:33.714Z,11.96
2022-11-10T18:01:02.403Z,12.12
2022-11-10T18:03:29.003Z,11.67
2022-11-10T18:05:55.588Z,11.83
2022-11-10T18:08:24.842Z,12.16
2022-11-10T18:10:53.052Z,11.97
2022-11-10T18:13:20.042Z,12.01
2022-11-10T18:15:48.129Z,12.07
2022-11-10T18:18:16.899Z,11.85
2022-11-10T18:20:47.949Z,11.84
2022-11-10T18:23:20.544Z,12.13
2022-11-10T18:25:47.533Z,11.58
2022-11-10T18:28:16.206Z,11.65
2022-11-10T18:30:43.107Z,11.56
2022-11-10T18:33:14.478Z,11.59
2022-11-10T18:35:43.456Z,11.69
2022-11-10T18:38:12.839Z,11.92
2022-11-10T18:40:41.624Z,11.72
2022-11-10T18:43:08.735Z,11.92
2022-11-10T18:45:36.949Z,11.66
2022-11-10T18:48:04.492Z,11.85
2022-11-10T18:50:31.256Z,11.51
2022-11-10T18:52:57.841Z,11.88
2022-11-10T18:55:24.844Z,11.88
2022-11-10T18:57:51.453Z,11.44
2022-11-10T19:00:19.890Z,11.26
2022-11-10T19:02:48.253Z,10.92
2022-11-10T19:05:14.982Z,11.22
2022-11-10T19:07:42.147Z,11.07
2022-11-10T19:10:13.401Z,11.23
2022-11-10T19:12:41.045Z,11.19
2022-11-10T19:15:08.896Z,11.23
2022-11-10T19:17:35.431Z,11.09
2022-11-10T19:20:02.999Z,10.93
2022-11-10T19:22:34.914Z,11.18
2022-11-10T19:25:07.992Z,11.14
2022-11-10T19:27:35.707Z,11.52
2022-11-10T19:30:02.258Z,11.12
2022-11-10T19:32:29.975Z,11.26
2022-11-10T19:34:56.507Z,11.27
2022-11-10T19:37:24.914Z,11.05
2022-11-10T19:39:51.669Z,10.96
2022-11-10T19:42:18.308Z,11.02
2022-11-10T19:44:44.888Z,11.20
2022-11-10T19:47:11.803Z,10.99
2022-11-10T19:49:42.275Z,11.02
2022-11-10T19:52:08.957Z,10.97
2022-11-10T19:54:36.426Z,10.66
2022-11-10T19:59:38.415Z,11.08
2022-11-10T20:02:12.252Z,11.20
2022-11-10T20:05:00.672Z,11.39
2022-11-10T20:07:49.871Z,11.28
2022-11-10T20:10:16.406Z,10.92
2022-11-10T20:12:48.187Z,11.00
2022-11-10T20:15:17.720Z,11.16
2022-11-10T20:17:44.292Z,11.18
2022-11-10T20:20:11.021Z,11.64
2022-11-10T20:22:37.629Z,11.38
2022-11-10T20:25:04.724Z,11.61
2022-11-10T20:27:31.386Z,11.77
2022-11-10T20:30:00.851Z,11.73
2022-11-10T20:32:28.262Z,11.77
2022-11-10T20:34:54.839Z,11.62
2022-11-10T20:37:21.511Z,11.52
2022-11-10T20:39:48.189Z,11.52
2022-11-10T20:42:14.833Z,11.34
2022-11-10T20:44:41.503Z,10.98
2022-11-10T20:47:08.229Z,10.80
2022-11-10T20:49:34.908Z,10.63
2022-11-10T20:52:01.565Z,10.39
2022-11-10T20:54:28.332Z,10.17
2022-11-10T20:56:54.990Z,10.19
2022-11-10T20:59:21.571Z,10.37
2022-11-10T21:01:48.186Z,10.25
2022-11-10T21:04:14.797Z,10.11
2022-11-10T21:06:41.420Z,10.28
2022-11-10T21:09:08.555Z,10.05
2022-11-10T21:11:53.825Z,10.18
2022-11-10T21:14:20.376Z,10.37
2022-11-10T21:16:47.025Z,10.31
2022-11-10T21:19:13.643Z,10.38
2022-11-10T21:21:40.257Z,10.38
2022-11-10T21:24:07.270Z,10.24
2022-11-10T21:26:35.763Z,10.27
2022-11-10T21:29:02.549Z,10.35
2022-11-10T21:31:30.600Z,10.48
2022-11-10T21:34:00.397Z,10.21
2022-11-10T21:36:29.468Z,10.12
2022-11-10T21:38:57.452Z,10.02
2022-11-10T21:41:24.766Z,10.04
2022-11-10T21:43:51.382Z,10.13
2022-11-10T21:46:18.299Z,10.32
2022-11-10T21:48:44.952Z,10.06
2022-11-10T21:51:16.376Z,10.00
2022-11-10T21:53:43.183Z,10.11
2022-11-10T21:56:11.493Z,10.07
2022-11-10T21:58:41.879Z,10.28
2022-11-10T22:01:14.257Z,10.27
